Terminal Aerodrome Forecast
Issued by NWS Dodge City, KS

Home | Current Version | Previous Version | Text Only | Print | Product List | Glossary On
Versions: 1 2 3 4 5 6 7 8 9 10 11 12 13 14 15 16 17 18 19 20 21 22 23 24 25 26 27 28 29 30 31 32 33 34 35 36 37 38 39 40 41 42
000
FTUS43 KDDC 181223 AAA
TAFDDC
TAF AMD
KDDC 181223Z 1812/1912 VRB06KT 2SM BR OVC003
      TEMPO 1812/1814 1/2SM FG VV002
     FM181600 36008KT P6SM OVC009
     FM190500 20007KT 4SM BR OVC005=

USA.gov is the U.S. government's official web portal to all federal, state and local government web resources and services.